createdAt,value
2024-05-09T00:00:45.791Z,56.84
2024-05-09T00:03:14.100Z,56.76
2024-05-09T00:05:43.788Z,56.72
2024-05-09T00:08:12.604Z,56.74
2024-05-09T00:10:41.495Z,56.88
2024-05-09T00:13:11.097Z,56.90
2024-05-09T00:15:39.495Z,57.17
2024-05-09T00:18:08.673Z,56.86
2024-05-09T00:20:40.058Z,56.85
2024-05-09T00:23:15.769Z,56.62
2024-05-09T00:25:44.463Z,57.08
2024-05-09T00:28:13.564Z,57.39
2024-05-09T00:30:41.698Z,57.36
2024-05-09T00:33:10.832Z,57.20
2024-05-09T00:35:40.149Z,57.40
2024-05-09T00:38:08.477Z,57.21
2024-05-09T00:40:42.229Z,57.05
2024-05-09T00:43:13.132Z,57.10
2024-05-09T00:45:43.642Z,57.65
2024-05-09T00:48:16.506Z,57.30
2024-05-09T00:50:47.509Z,57.69
2024-05-09T00:53:17.414Z,57.61
2024-05-09T00:55:46.852Z,57.75
2024-05-09T00:58:19.341Z,57.25
2024-05-09T01:00:48.318Z,57.18
2024-05-09T01:03:16.476Z,57.18
2024-05-09T01:05:45.109Z,57.19
2024-05-09T01:08:13.519Z,57.38
2024-05-09T01:10:45.031Z,57.38
2024-05-09T01:13:14.250Z,57.43
2024-05-09T01:15:43.133Z,57.46
2024-05-09T01:18:12.656Z,57.78
2024-05-09T01:20:44.249Z,57.48
2024-05-09T01:23:15.637Z,57.56
2024-05-09T01:25:46.681Z,57.56
2024-05-09T01:28:16.540Z,57.26
2024-05-09T01:30:46.007Z,57.43
2024-05-09T01:33:14.239Z,57.40
2024-05-09T01:35:43.287Z,57.51
2024-05-09T01:38:13.916Z,57.35
2024-05-09T01:40:43.544Z,57.71
2024-05-09T01:43:12.278Z,57.52
2024-05-09T01:45:41.548Z,58.14
2024-05-09T01:48:10.998Z,58.00
2024-05-09T01:50:42.198Z,58.38
2024-05-09T01:53:15.023Z,58.09
2024-05-09T01:55:44.155Z,58.16
2024-05-09T01:58:13.161Z,58.70
2024-05-09T02:00:42.853Z,58.02
2024-05-09T02:03:16.076Z,58.26
2024-05-09T02:05:47.564Z,58.24
2024-05-09T02:08:21.719Z,57.97
2024-05-09T02:10:50.603Z,57.83
2024-05-09T02:13:19.170Z,57.93
2024-05-09T02:15:47.142Z,58.57
2024-05-09T02:18:15.174Z,57.97
2024-05-09T02:20:43.980Z,58.38
2024-05-09T02:23:12.638Z,58.45
2024-05-09T02:25:41.889Z,58.42
2024-05-09T02:28:09.938Z,58.87
2024-05-09T02:30:41.092Z,58.28
2024-05-09T02:33:12.838Z,58.52
2024-05-09T02:35:44.118Z,58.01
2024-05-09T02:38:13.359Z,57.86
2024-05-09T02:40:41.643Z,58.43
2024-05-09T02:43:13.042Z,58.67
2024-05-09T02:45:41.884Z,58.21
2024-05-09T02:48:14.139Z,58.12
2024-05-09T02:50:44.549Z,58.28
2024-05-09T02:53:14.652Z,58.28
2024-05-09T02:55:43.337Z,58.38
2024-05-09T02:58:11.898Z,58.42
2024-05-09T03:00:42.201Z,58.55
2024-05-09T03:03:14.066Z,57.97
2024-05-09T03:05:44.621Z,58.19
2024-05-09T03:08:13.266Z,58.18
2024-05-09T03:10:41.680Z,58.58
2024-05-09T03:13:15.724Z,58.52
2024-05-09T03:15:45.268Z,58.28
2024-05-09T03:18:13.911Z,58.53
2024-05-09T03:20:44.435Z,58.90
2024-05-09T03:23:12.981Z,58.78
2024-05-09T03:25:41.081Z,59.31
2024-05-09T03:28:09.039Z,59.28
2024-05-09T03:30:41.807Z,59.16
2024-05-09T03:33:19.271Z,59.27
2024-05-09T03:35:49.516Z,59.25
2024-05-09T03:38:17.708Z,59.53
2024-05-09T03:40:49.012Z,59.43
2024-05-09T03:43:19.223Z,59.36
2024-05-09T03:45:50.577Z,59.64
2024-05-09T03:48:18.743Z,59.18
2024-05-09T03:50:47.261Z,59.65
2024-05-09T03:53:16.550Z,59.40
2024-05-09T03:55:48.641Z,59.65
2024-05-09T03:58:16.512Z,59.51
2024-05-09T04:00:44.669Z,60.00
2024-05-09T04:03:13.454Z,59.70
2024-05-09T04:05:43.108Z,59.55
2024-05-09T04:08:15.374Z,59.60
2024-05-09T04:10:44.128Z,59.78
2024-05-09T04:13:12.280Z,60.17
2024-05-09T04:15:40.287Z,59.93
2024-05-09T04:18:08.499Z,59.92
2024-05-09T04:20:39.723Z,59.99
2024-05-09T04:23:14.629Z,60.29
2024-05-09T04:25:45.459Z,59.86
2024-05-09T04:28:14.430Z,59.92
2024-05-09T04:30:43.439Z,60.14
2024-05-09T04:33:13.825Z,60.36
2024-05-09T04:35:43.833Z,60.33
2024-05-09T04:38:14.272Z,60.40
2024-05-09T04:40:43.520Z,60.26
2024-05-09T04:43:16.323Z,60.25
2024-05-09T04:45:44.532Z,60.88
2024-05-09T04:48:12.622Z,60.43
2024-05-09T04:50:40.983Z,60.81
2024-05-09T04:53:10.659Z,60.82
2024-05-09T04:55:40.628Z,61.00
2024-05-09T04:58:09.746Z,61.03
2024-05-09T05:00:40.499Z,60.74
2024-05-09T05:03:14.221Z,60.69
2024-05-09T05:05:45.589Z,61.17
2024-05-09T05:08:19.276Z,61.59
2024-05-09T05:10:49.032Z,62.21
2024-05-09T05:13:21.585Z,62.08
2024-05-09T05:15:58.378Z,62.20
2024-05-09T05:18:28.576Z,62.32
2024-05-09T05:20:57.375Z,62.60
2024-05-09T05:23:25.574Z,62.90
2024-05-09T05:25:55.674Z,62.77
2024-05-09T05:28:24.298Z,63.07
2024-05-09T05:30:52.382Z,63.78
2024-05-09T05:33:22.526Z,63.38
2024-05-09T05:35:51.340Z,63.52
2024-05-09T05:38:21.286Z,63.51
2024-05-09T05:40:50.777Z,63.47
2024-05-09T05:43:19.496Z,63.74
2024-05-09T05:45:47.713Z,63.88
2024-05-09T05:48:17.454Z,63.48
2024-05-09T05:50:46.089Z,63.61
2024-05-09T05:53:14.575Z,63.55
2024-05-09T05:55:42.958Z,63.46
2024-05-09T05:58:12.183Z,63.70
2024-05-09T06:00:42.131Z,63.17
2024-05-09T06:03:13.034Z,63.14
2024-05-09T06:05:46.031Z,63.29
2024-05-09T06:08:14.492Z,62.99
2024-05-09T06:10:42.906Z,63.05
2024-05-09T06:13:13.487Z,63.55
2024-05-09T06:15:42.171Z,62.93
2024-05-09T06:18:12.272Z,62.91
2024-05-09T06:20:43.354Z,62.94
2024-05-09T06:23:13.279Z,62.81
2024-05-09T06:25:42.760Z,62.69
2024-05-09T06:28:11.594Z,62.54
2024-05-09T06:30:42.330Z,62.79
2024-05-09T06:33:14.442Z,62.36
2024-05-09T06:35:46.783Z,62.19
2024-05-09T06:38:15.038Z,62.00
2024-05-09T06:40:44.175Z,62.49
2024-05-09T06:43:18.149Z,62.06
2024-05-09T06:45:49.057Z,62.02
2024-05-09T06:48:21.831Z,61.61
2024-05-09T06:50:50.852Z,61.61
2024-05-09T06:53:23.359Z,61.47
2024-05-09T06:55:51.775Z,61.71
2024-05-09T06:58:19.812Z,61.89
2024-05-09T07:00:47.732Z,61.22
2024-05-09T07:03:18.219Z,61.15
2024-05-09T07:05:49.158Z,60.88
2024-05-09T07:08:18.941Z,61.10
2024-05-09T07:10:47.525Z,60.92
2024-05-09T07:13:16.031Z,60.96
2024-05-09T07:15:44.070Z,60.75
2024-05-09T07:18:16.700Z,60.91
2024-05-09T07:20:46.910Z,60.80
2024-05-09T07:23:16.017Z,60.82
2024-05-09T07:25:44.211Z,60.67
2024-05-09T07:28:21.384Z,60.88
2024-05-09T07:30:49.254Z,60.25
2024-05-09T07:33:23.165Z,60.18
2024-05-09T07:35:52.961Z,60.25
2024-05-09T07:38:21.276Z,59.77
2024-05-09T07:40:49.650Z,59.69
2024-05-09T07:43:17.699Z,59.55
2024-05-09T07:45:52.545Z,59.74
2024-05-09T07:52:39.050Z,59.46
2024-05-09T07:53:48.301Z,59.34
2024-05-09T07:56:22.363Z,59.04
2024-05-09T07:58:56.019Z,58.58
2024-05-09T08:01:26.513Z,58.38
2024-05-09T08:03:55.732Z,58.08
2024-05-09T08:06:24.743Z,58.03
2024-05-09T08:08:52.775Z,57.84
2024-05-09T08:11:20.922Z,57.65
2024-05-09T08:13:48.929Z,57.62
2024-05-09T08:16:16.832Z,57.42
2024-05-09T08:18:44.876Z,57.29
2024-05-09T08:21:12.936Z,57.07
2024-05-09T08:23:40.903Z,57.10
2024-05-09T08:26:09.220Z,56.61
2024-05-09T08:28:37.055Z,56.44
2024-05-09T08:31:07.017Z,56.49
2024-05-09T08:33:35.596Z,56.31
2024-05-09T08:36:04.436Z,55.82
2024-05-09T08:38:32.400Z,55.37
2024-05-09T08:41:03.839Z,54.97
2024-05-09T08:43:32.057Z,55.30
2024-05-09T08:46:02.472Z,54.14
2024-05-09T08:48:34.635Z,54.99
2024-05-09T08:51:03.243Z,55.10
2024-05-09T08:53:31.328Z,54.56
2024-05-09T08:56:04.566Z,54.40
2024-05-09T08:58:34.935Z,54.22
2024-05-09T09:01:05.198Z,54.31
2024-05-09T09:03:36.848Z,54.15
2024-05-09T09:06:14.655Z,53.10
2024-05-09T09:08:44.429Z,53.66
2024-05-09T09:11:12.593Z,53.66
2024-05-09T09:13:40.592Z,53.73
2024-05-09T09:16:08.862Z,53.36
2024-05-09T09:19:59.437Z,53.86
2024-05-09T09:22:27.872Z,53.31
2024-05-09T09:24:55.901Z,53.19
2024-05-09T09:27:24.037Z,52.53
2024-05-09T09:29:52.014Z,52.61
2024-05-09T09:32:19.987Z,52.50
2024-05-09T09:34:48.568Z,51.73
2024-05-09T09:37:20.851Z,51.79
2024-05-09T09:39:49.487Z,51.27
2024-05-09T09:42:21.291Z,51.18
2024-05-09T09:44:58.224Z,51.47
2024-05-09T09:47:33.394Z,51.09
2024-05-09T09:50:07.070Z,50.72
2024-05-09T09:52:37.891Z,51.16
2024-05-09T09:55:06.946Z,49.96
2024-05-09T09:57:37.419Z,50.83
2024-05-09T10:00:11.634Z,50.26
2024-05-09T10:02:43.703Z,49.92
2024-05-09T10:05:12.028Z,49.67
2024-05-09T10:07:43.635Z,49.65
2024-05-09T10:10:16.146Z,48.97
2024-05-09T10:13:13.049Z,49.56
2024-05-09T10:15:52.628Z,49.36
2024-05-09T10:18:28.412Z,49.01
2024-05-09T10:20:59.663Z,47.69
2024-05-09T10:23:29.018Z,46.91
2024-05-09T10:26:05.235Z,47.09
2024-05-09T10:28:38.049Z,47.25
2024-05-09T10:31:15.025Z,47.15
2024-05-09T10:33:50.236Z,47.40
2024-05-09T10:36:27.149Z,46.25
2024-05-09T10:38:55.786Z,45.68
2024-05-09T10:41:24.183Z,45.96
2024-05-09T10:43:52.668Z,45.01
2024-05-09T10:46:20.764Z,43.50
2024-05-09T10:48:50.823Z,43.91
2024-05-09T10:51:21.604Z,43.51
2024-05-09T10:53:49.450Z,44.51
2024-05-09T10:56:17.594Z,43.87
2024-05-09T10:58:45.724Z,44.66
2024-05-09T11:01:14.412Z,44.15
2024-05-09T11:03:47.122Z,43.70
2024-05-09T11:06:18.744Z,43.21
2024-05-09T11:08:47.663Z,42.89
2024-05-09T11:11:16.402Z,43.29
2024-05-09T11:13:44.559Z,42.87
2024-05-09T11:16:21.278Z,42.01
2024-05-09T11:18:59.183Z,42.03
2024-05-09T11:21:27.697Z,41.98
2024-05-09T11:23:56.962Z,41.39
2024-05-09T11:26:25.508Z,41.16
2024-05-09T11:28:53.802Z,39.29
2024-05-09T11:31:22.004Z,41.29
2024-05-09T11:33:50.237Z,41.18
2024-05-09T11:36:18.188Z,40.57
2024-05-09T11:38:46.012Z,40.84
2024-05-09T11:41:21.064Z,40.44
2024-05-09T11:43:49.018Z,38.84
2024-05-09T11:46:17.383Z,39.10
2024-05-09T11:48:45.660Z,39.18
2024-05-09T11:51:13.640Z,39.63
2024-05-09T11:53:41.585Z,39.90
2024-05-09T11:56:11.710Z,40.29
2024-05-09T11:58:39.680Z,40.33
2024-05-09T12:01:07.726Z,39.96
2024-05-09T12:03:37.790Z,39.33
2024-05-09T12:06:06.172Z,38.73
2024-05-09T12:08:33.943Z,38.14
2024-05-09T12:11:01.816Z,38.85
2024-05-09T12:13:29.663Z,39.14
2024-05-09T12:15:57.474Z,38.71
2024-05-09T12:18:25.253Z,38.34
2024-05-09T12:20:53.255Z,38.65
2024-05-09T12:23:20.981Z,38.48
2024-05-09T12:25:50.023Z,38.52
2024-05-09T12:28:18.423Z,38.14
2024-05-09T12:30:46.470Z,37.25
2024-05-09T12:33:14.744Z,36.58
2024-05-09T12:35:45.374Z,37.30
2024-05-09T12:38:15.577Z,37.74
2024-05-09T12:40:43.680Z,37.73
2024-05-09T12:43:12.063Z,37.48
2024-05-09T12:45:40.751Z,36.97
2024-05-09T12:48:12.534Z,36.88
2024-05-09T12:50:42.032Z,35.75
2024-05-09T12:53:10.466Z,35.88
2024-05-09T12:55:45.100Z,36.24
2024-05-09T12:58:22.512Z,35.76
2024-05-09T13:00:52.611Z,35.48
2024-05-09T13:03:21.425Z,33.98
2024-05-09T13:05:51.507Z,34.76
2024-05-09T13:08:20.692Z,35.30
2024-05-09T13:10:50.365Z,35.21
2024-05-09T13:13:18.971Z,34.87
2024-05-09T13:15:47.463Z,35.18
2024-05-09T13:18:15.502Z,35.00
2024-05-09T13:20:44.914Z,35.20
2024-05-09T13:23:12.762Z,34.06
2024-05-09T13:25:40.599Z,34.69
2024-05-09T13:28:08.778Z,33.76
2024-05-09T13:30:40.717Z,33.63
2024-05-09T13:33:12.227Z,33.29
2024-05-09T13:35:47.706Z,33.42
2024-05-09T13:38:20.252Z,33.65
2024-05-09T13:40:49.387Z,33.18
2024-05-09T13:43:18.625Z,32.80
2024-05-09T13:45:47.687Z,32.44
2024-05-09T13:48:15.840Z,33.33
2024-05-09T13:50:43.866Z,32.78
2024-05-09T13:53:11.943Z,32.51
2024-05-09T13:55:40.474Z,32.20
2024-05-09T13:58:09.611Z,32.22
2024-05-09T14:00:46.659Z,32.66
2024-05-09T14:03:19.468Z,32.78
2024-05-09T14:05:51.158Z,32.42
2024-05-09T14:08:22.502Z,31.36
2024-05-09T14:10:52.423Z,30.44
2024-05-09T14:13:20.423Z,31.83
2024-05-09T14:15:48.831Z,31.69
2024-05-09T14:18:17.491Z,31.39
2024-05-09T14:20:45.212Z,31.16
2024-05-09T14:23:12.934Z,31.52
2024-05-09T14:25:42.837Z,31.09
2024-05-09T14:28:13.326Z,28.99
2024-05-09T14:30:42.971Z,30.51
2024-05-09T14:33:11.800Z,30.04
2024-05-09T14:35:39.899Z,29.95
2024-05-09T14:38:08.924Z,29.73
2024-05-09T14:40:42.406Z,29.39
2024-05-09T14:43:13.131Z,29.30
2024-05-09T14:45:42.171Z,28.77
2024-05-09T14:48:11.011Z,28.63
2024-05-09T14:50:40.525Z,28.68
2024-05-09T14:53:10.591Z,28.65
2024-05-09T14:55:40.043Z,28.92
2024-05-09T14:58:13.015Z,28.30
2024-05-09T15:00:46.699Z,28.16
2024-05-09T15:03:20.249Z,28.44
2024-05-09T15:05:50.034Z,28.35
2024-05-09T15:08:19.696Z,28.78
2024-05-09T15:10:50.454Z,28.70
2024-05-09T15:13:20.037Z,28.48
2024-05-09T15:15:48.602Z,28.27
2024-05-09T15:18:16.973Z,28.45
2024-05-09T15:20:45.603Z,28.21
2024-05-09T15:23:14.002Z,28.63
2024-05-09T15:25:41.802Z,28.27
2024-05-09T15:28:09.880Z,27.94
2024-05-09T15:30:37.946Z,27.93
2024-05-09T15:33:07.140Z,27.86
2024-05-09T15:35:36.218Z,27.58
2024-05-09T15:38:04.626Z,27.56
2024-05-09T15:40:39.523Z,27.55
2024-05-09T15:43:10.195Z,27.71
2024-05-09T15:45:40.515Z,27.91
2024-05-09T15:48:10.429Z,27.90
2024-05-09T15:50:41.423Z,27.77
2024-05-09T15:53:12.304Z,27.81
2024-05-09T15:55:41.641Z,27.86
2024-05-09T15:58:10.183Z,26.91
2024-05-09T16:00:41.691Z,26.93
2024-05-09T16:03:13.110Z,26.64
2024-05-09T16:05:46.343Z,26.77
2024-05-09T16:08:15.342Z,26.55
2024-05-09T16:10:46.124Z,27.00
2024-05-09T16:13:16.067Z,27.28
2024-05-09T16:15:44.208Z,27.03
2024-05-09T16:18:12.959Z,27.29
2024-05-09T16:20:42.467Z,27.18
2024-05-09T16:23:12.887Z,27.00
2024-05-09T16:25:45.462Z,26.70
2024-05-09T16:28:14.014Z,26.98
2024-05-09T16:30:42.116Z,26.96
2024-05-09T16:33:11.968Z,25.90
2024-05-09T16:35:40.234Z,26.10
2024-05-09T16:38:08.267Z,25.91
2024-05-09T16:40:40.091Z,26.03
2024-05-09T16:43:10.748Z,26.47
2024-05-09T16:45:41.892Z,26.43
2024-05-09T16:48:10.377Z,26.84
2024-05-09T16:50:39.149Z,26.64
2024-05-09T16:53:07.697Z,26.78
2024-05-09T16:55:36.361Z,27.06
2024-05-09T16:58:06.625Z,27.00
2024-05-09T17:00:40.899Z,27.22
2024-05-09T17:03:14.964Z,27.05
2024-05-09T17:05:47.160Z,26.97
2024-05-09T17:08:20.313Z,26.71
2024-05-09T17:10:49.520Z,27.19
2024-05-09T17:13:19.028Z,27.63
2024-05-09T17:15:48.122Z,27.79
2024-05-09T17:18:16.638Z,28.03
2024-05-09T17:20:44.695Z,27.32
2024-05-09T17:23:14.059Z,27.61
2024-05-09T17:25:42.770Z,27.97
2024-05-09T17:28:11.368Z,28.06
2024-05-09T17:30:41.022Z,27.86
2024-05-09T17:33:11.603Z,27.85
2024-05-09T17:35:41.082Z,28.36
2024-05-09T17:38:09.180Z,28.78
2024-05-09T17:40:38.506Z,28.45
2024-05-09T17:43:09.622Z,28.70
2024-05-09T17:45:40.360Z,28.93
2024-05-09T17:48:10.393Z,29.26
2024-05-09T17:50:39.596Z,29.11
2024-05-09T17:53:08.642Z,29.79
2024-05-09T17:55:36.822Z,29.55
2024-05-09T17:58:05.807Z,29.52
2024-05-09T18:00:39.269Z,29.66
2024-05-09T18:03:14.017Z,29.65
2024-05-09T18:05:44.029Z,29.87
2024-05-09T18:08:13.552Z,29.73
2024-05-09T18:10:42.339Z,30.21
2024-05-09T18:13:12.096Z,29.90
2024-05-09T18:15:40.543Z,30.47
2024-05-09T18:18:09.326Z,30.53
2024-05-09T18:20:43.710Z,30.94
2024-05-09T18:23:16.579Z,30.91
2024-05-09T18:25:46.065Z,31.01
2024-05-09T18:28:14.842Z,31.49
2024-05-09T18:30:43.338Z,31.63
2024-05-09T18:33:11.841Z,31.44
2024-05-09T18:35:43.334Z,31.78
2024-05-09T18:38:11.649Z,32.09
2024-05-09T18:40:41.163Z,32.01
2024-05-09T18:43:11.368Z,32.02
2024-05-09T18:45:39.597Z,32.22
2024-05-09T18:48:09.158Z,32.47
2024-05-09T18:50:40.207Z,32.34
2024-05-09T18:53:13.173Z,32.44
2024-05-09T18:55:44.429Z,32.47
2024-05-09T18:58:12.569Z,32.77
2024-05-09T19:00:42.906Z,32.84
2024-05-09T19:03:14.516Z,32.98
2024-05-09T19:05:44.682Z,33.16
2024-05-09T19:08:15.093Z,33.14
2024-05-09T19:10:43.623Z,33.46
2024-05-09T19:13:13.518Z,33.59
2024-05-09T19:15:43.148Z,33.72
2024-05-09T19:18:13.251Z,33.68
2024-05-09T19:20:42.103Z,33.87
2024-05-09T19:23:11.907Z,33.69
2024-05-09T19:25:39.881Z,33.88
2024-05-09T19:28:07.641Z,33.96
2024-05-09T19:30:40.292Z,34.10
2024-05-09T19:33:13.990Z,34.24
2024-05-09T19:35:43.057Z,34.41
2024-05-09T19:38:11.211Z,34.53
2024-05-09T19:40:39.150Z,34.48
2024-05-09T19:43:07.125Z,34.85
2024-05-09T19:45:36.143Z,34.77
2024-05-09T19:48:05.806Z,35.26
2024-05-09T19:50:41.385Z,35.23
2024-05-09T19:53:14.876Z,35.33
2024-05-09T19:55:43.132Z,35.44
2024-05-09T19:58:11.893Z,35.94
2024-05-09T20:00:42.706Z,35.87
2024-05-09T20:03:13.180Z,36.23
2024-05-09T20:05:45.893Z,35.97
2024-05-09T20:08:14.503Z,36.25
2024-05-09T20:10:42.384Z,36.58
2024-05-09T20:13:10.100Z,36.97
2024-05-09T20:15:38.647Z,37.15
2024-05-09T20:18:07.363Z,37.50
2024-05-09T20:20:39.691Z,37.44
2024-05-09T20:23:11.626Z,37.57
2024-05-09T20:25:39.951Z,38.02
2024-05-09T20:28:07.897Z,37.98
2024-05-09T20:30:36.558Z,38.33
2024-05-09T20:33:07.821Z,38.88
2024-05-09T20:35:36.992Z,39.29
2024-05-09T20:38:05.419Z,39.29
2024-05-09T20:40:37.549Z,39.05
2024-05-09T20:43:10.708Z,39.31
2024-05-09T20:45:39.333Z,39.47
2024-05-09T20:48:08.672Z,39.81
2024-05-09T20:50:40.650Z,39.98
2024-05-09T20:53:12.197Z,39.53
2024-05-09T20:55:40.843Z,39.68
2024-05-09T20:58:09.618Z,39.95
2024-05-09T21:00:41.382Z,40.05
2024-05-09T21:03:14.866Z,40.30
2024-05-09T21:05:44.306Z,41.03
2024-05-09T21:08:12.420Z,40.96
2024-05-09T21:10:40.529Z,40.88
2024-05-09T21:13:08.612Z,41.11
2024-05-09T21:15:36.702Z,41.52
2024-05-09T21:18:05.107Z,41.49
2024-05-09T21:20:35.008Z,41.45
2024-05-09T21:23:03.841Z,41.62
2024-05-09T21:25:32.447Z,41.73
2024-05-09T21:28:01.032Z,41.53
2024-05-09T21:30:38.514Z,41.77
2024-05-09T21:33:12.699Z,42.23
2024-05-09T21:35:45.634Z,42.07
2024-05-09T21:38:15.316Z,42.09
2024-05-09T21:40:43.812Z,41.91
2024-05-09T21:43:12.056Z,42.40
2024-05-09T21:45:40.008Z,42.37
2024-05-09T21:48:08.200Z,42.40
2024-05-09T21:50:40.473Z,42.57
2024-05-09T21:53:11.880Z,42.71
2024-05-09T21:55:40.261Z,42.42
2024-05-09T21:58:08.348Z,42.27
2024-05-09T22:00:39.300Z,42.52
2024-05-09T22:03:08.426Z,42.75
2024-05-09T22:05:37.758Z,42.70
2024-05-09T22:08:05.913Z,42.87
2024-05-09T22:10:36.074Z,43.21
2024-05-09T22:13:06.137Z,42.95
2024-05-09T22:15:39.706Z,43.12
2024-05-09T22:18:09.951Z,43.59
2024-05-09T22:20:45.589Z,43.23
2024-05-09T22:23:15.293Z,43.40
2024-05-09T22:25:43.191Z,43.59
2024-05-09T22:28:13.106Z,43.49
2024-05-09T22:30:41.361Z,43.38
2024-05-09T22:33:10.998Z,43.63
2024-05-09T22:35:40.988Z,43.75
2024-05-09T22:38:09.158Z,43.94
2024-05-09T22:40:45.615Z,44.17
2024-05-09T22:43:21.711Z,43.85
2024-05-09T22:45:51.782Z,44.14
2024-05-09T22:48:20.242Z,44.44
2024-05-09T22:50:48.130Z,44.56
2024-05-09T22:53:16.092Z,44.79
2024-05-09T22:55:43.818Z,44.98
2024-05-09T22:58:11.585Z,44.82
2024-05-09T23:00:39.625Z,44.80
2024-05-09T23:03:07.370Z,44.89
2024-05-09T23:05:35.199Z,45.20
2024-05-09T23:08:03.074Z,45.31
2024-05-09T23:10:35.867Z,45.25
2024-05-09T23:13:08.818Z,45.05
2024-05-09T23:15:38.452Z,45.14
2024-05-09T23:18:07.352Z,45.12
2024-05-09T23:20:38.793Z,45.61
2024-05-09T23:23:08.769Z,45.34
2024-05-09T23:25:37.524Z,45.40
2024-05-09T23:28:06.231Z,45.05
2024-05-09T23:30:38.473Z,45.10
2024-05-09T23:33:10.867Z,45.32
2024-05-09T23:35:41.000Z,45.45
2024-05-09T23:38:08.710Z,45.33
2024-05-09T23:40:39.797Z,45.53
2024-05-09T23:43:12.778Z,45.51
2024-05-09T23:45:41.930Z,45.44
2024-05-09T23:48:10.310Z,45.44
2024-05-09T23:50:39.812Z,45.84
2024-05-09T23:53:09.443Z,45.56
2024-05-09T23:55:38.482Z,45.72
2024-05-09T23:58:07.009Z,45.52
